Time;durP1;ratioP1;P1;durP2;ratioP2;P2;SDS_P1;SDS_P2;PMS_P1;PMS_P2;Temp;Humidity;BMP_temperature;BMP_pressure;BME280_temperature;BME280_humidity;BME280_pressure;Samples;Min_cycle;Max_cycle;Signal;HPM_P1;HPM_P2
2021/05/15 00:00:00;;;;;;;;;;;;;;;11.55;68.94;96538.64;1708182;84;20166;-81
2021/05/15 00:02:26;;;;;;;;;;;;;;;11.59;68.17;96541.00;1708037;84;20157;-81
2021/05/15 00:04:52;;;;;;;;;;;;;;;11.61;68.98;96539.88;1708364;84;20165;-80
2021/05/15 00:07:18;;;;;;;;;;;;;;;11.63;69.50;96541.08;1708029;84;20141;-81
2021/05/15 00:09:47;;;;;;;;;;;;;;;11.69;69.68;96539.17;1701163;84;20165;-80
2021/05/15 00:12:13;;;;;;;;;;;;;;;11.72;68.27;96546.31;1708365;84;20154;-80
2021/05/15 00:14:40;;;;;;;;;;;;;;;11.76;68.98;96548.67;1707578;84;20217;-81
2021/05/15 00:17:08;;;;;;;;;;;;;;;11.79;69.31;96541.77;1705128;84;20189;-82
2021/05/15 00:19:35;;;;;;;;;;;;;;;11.84;69.47;96541.67;1705030;84;20612;-80
2021/05/15 00:22:01;;;;;;;;;;;;;;;11.90;69.07;96539.45;1707355;84;20140;-79
2021/05/15 00:24:27;;;;;;;;;;;;;;;11.88;68.94;96542.22;1708568;84;20291;-80
2021/05/15 00:26:53;;;;;;;;;;;;;;;11.90;69.67;96542.09;1708392;84;20145;-81
2021/05/15 00:29:19;;;;;;;;;;;;;;;11.93;69.03;96545.27;1705996;84;20189;-81
2021/05/15 00:31:45;;;;;;;;;;;;;;;11.91;68.54;96546.40;1708239;84;20157;-80
2021/05/15 00:34:11;;;;;;;;;;;;;;;11.84;69.23;96546.14;1701209;84;20138;-81
2021/05/15 00:36:38;;;;;;;;;;;;;;;11.84;69.57;96544.31;1701374;84;20181;-80
2021/05/15 00:39:06;;;;;;;;;;;;;;;11.89;69.85;96543.88;1715066;84;20188;-80
2021/05/15 00:41:32;;;;;;;;;;;;;;;11.87;69.73;96544.04;1716774;84;20167;-80
2021/05/15 00:46:45;;;;;;;;;;;;;;;11.90;70.02;96548.69;1716868;84;20184;-79
2021/05/15 00:49:13;;;;;;;;;;;;;;;11.96;70.37;96549.42;1716826;84;20165;-81
2021/05/15 00:51:41;;;;;;;;;;;;;;;11.99;69.83;96545.22;1716599;84;20200;-81
2021/05/15 00:54:12;;;;;;;;;;;;;;;11.95;70.34;96554.36;1716364;84;20179;-81
2021/05/15 00:56:39;;;;;;;;;;;;;;;11.91;69.77;96547.72;1716598;84;20212;-81
2021/05/15 00:59:05;;;;;;;;;;;;;;;11.87;69.36;96547.18;1716603;83;20224;-81
2021/05/15 01:01:32;;;;;;;;;;;;;;;11.78;69.11;96550.19;1716799;84;20239;-80
2021/05/15 01:03:59;;;;;;;;;;;;;;;11.71;69.25;96545.14;1717797;84;20228;-80
2021/05/15 01:06:25;;;;;;;;;;;;;;;11.63;69.28;96552.95;1736486;82;20193;-81
2021/05/15 01:08:53;;;;;;;;;;;;;;;11.58;70.06;96556.48;1746991;82;20166;-81
2021/05/15 01:11:19;;;;;;;;;;;;;;;11.49;70.13;96548.95;1726048;82;20197;-79
2021/05/15 01:13:53;;;;;;;;;;;;;;;11.45;69.70;96553.69;1716273;84;20176;-81
2021/05/15 01:16:20;;;;;;;;;;;;;;;11.40;70.57;96551.95;1716630;84;20200;-80
2021/05/15 01:18:46;;;;;;;;;;;;;;;11.38;70.76;96553.89;1716636;84;20180;-79
2021/05/15 01:21:12;;;;;;;;;;;;;;;11.33;71.36;96550.86;1716814;84;20168;-78
2021/05/15 01:23:39;;;;;;;;;;;;;;;11.28;70.27;96550.43;1722413;83;20193;-79
2021/05/15 01:26:28;;;;;;;;;;;;;;;11.24;70.99;96550.73;1716729;84;20153;-80
2021/05/15 01:29:01;;;;;;;;;;;;;;;11.21;71.27;96556.78;1716295;84;20164;-81
2021/05/15 01:31:29;;;;;;;;;;;;;;;11.20;70.40;96556.43;1716345;84;20157;-80
2021/05/15 01:33:56;;;;;;;;;;;;;;;11.14;69.43;96552.55;1716731;83;20160;-80
2021/05/15 01:36:23;;;;;;;;;;;;;;;11.11;70.23;96548.04;1716478;84;20152;-80
2021/05/15 01:38:50;;;;;;;;;;;;;;;11.07;69.44;96550.13;1716535;84;20189;-80
2021/05/15 01:41:17;;;;;;;;;;;;;;;11.04;70.67;96550.39;1716411;84;20137;-81
2021/05/15 01:43:44;;;;;;;;;;;;;;;11.01;70.54;96544.92;1716502;83;20160;-80
2021/05/15 01:46:12;;;;;;;;;;;;;;;11.01;70.66;96548.03;1716384;83;20148;-79
2021/05/15 01:48:38;;;;;;;;;;;;;;;10.98;71.16;96547.01;1716792;84;20172;-80
2021/05/15 01:51:12;;;;;;;;;;;;;;;10.98;71.80;96552.28;1716604;83;20157;-79
2021/05/15 01:53:48;;;;;;;;;;;;;;;10.97;71.38;96550.61;1716501;83;20192;-80
2021/05/15 01:56:17;;;;;;;;;;;;;;;10.96;71.36;96548.94;1716315;83;20571;-80
2021/05/15 01:58:43;;;;;;;;;;;;;;;10.94;69.67;96548.59;1716658;84;20224;-81
2021/05/15 02:01:10;;;;;;;;;;;;;;;10.93;70.69;96550.06;1716735;83;20208;-81
2021/05/15 02:03:41;;;;;;;;;;;;;;;10.92;71.29;96552.34;1716852;83;20520;-80
2021/05/15 02:06:07;;;;;;;;;;;;;;;10.91;71.51;96542.27;1716683;84;20169;-80
2021/05/15 02:08:33;;;;;;;;;;;;;;;10.77;70.77;96525.56;1716891;84;20160;-80
2021/05/15 02:11:00;;;;;;;;;;;;;;;10.92;70.36;96551.84;1717046;84;20172;-80
2021/05/15 02:13:28;;;;;;;;;;;;;;;10.90;70.46;96547.69;1722608;83;20249;-80
2021/05/15 02:15:55;;;;;;;;;;;;;;;10.90;70.41;96551.15;1716773;84;20179;-80
2021/05/15 02:18:22;;;;;;;;;;;;;;;10.91;71.11;96546.72;1716829;84;20160;-80
2021/05/15 02:20:48;;;;;;;;;;;;;;;10.90;70.90;96543.23;1716781;83;20192;-80
2021/05/15 02:23:14;;;;;;;;;;;;;;;10.89;71.34;96540.28;1716829;84;20145;-80
2021/05/15 02:25:41;;;;;;;;;;;;;;;10.87;71.71;96543.53;1716852;84;20489;-80
2021/05/15 02:28:08;;;;;;;;;;;;;;;10.87;70.49;96547.48;1716830;84;20508;-80
2021/05/15 02:30:35;;;;;;;;;;;;;;;10.86;69.94;96547.14;1716855;84;20167;-79
2021/05/15 02:33:01;;;;;;;;;;;;;;;10.85;70.45;96552.06;1716770;84;20189;-80
2021/05/15 02:35:28;;;;;;;;;;;;;;;10.86;70.62;96552.41;1716888;84;20168;-79
2021/05/15 02:37:55;;;;;;;;;;;;;;;10.86;70.90;96552.88;1716696;84;20160;-80
2021/05/15 02:40:22;;;;;;;;;;;;;;;10.88;71.81;96554.43;1716786;83;20155;-80
2021/05/15 02:42:51;;;;;;;;;;;;;;;10.92;71.94;96553.16;1716340;84;20148;-80
2021/05/15 02:45:20;;;;;;;;;;;;;;;10.97;72.11;96554.06;1716461;83;20184;-80
2021/05/15 02:47:46;;;;;;;;;;;;;;;11.03;70.74;96563.23;1716806;84;20172;-80
2021/05/15 02:50:14;;;;;;;;;;;;;;;11.06;71.26;96561.64;1716641;84;20185;-80
2021/05/15 02:52:41;;;;;;;;;;;;;;;11.10;70.37;96563.02;1716690;84;20160;-79
2021/05/15 02:55:09;;;;;;;;;;;;;;;11.09;71.15;96564.83;1717152;84;20152;-80
2021/05/15 02:57:35;;;;;;;;;;;;;;;11.09;71.66;96563.98;1717230;84;20212;-80
2021/05/15 03:00:04;;;;;;;;;;;;;;;11.17;72.15;96558.87;1717020;84;20232;-80
2021/05/15 03:02:30;;;;;;;;;;;;;;;11.22;70.94;96568.50;1717139;84;20221;-79
2021/05/15 03:04:56;;;;;;;;;;;;;;;11.22;71.09;96571.14;1717025;84;20228;-80
2021/05/15 03:07:22;;;;;;;;;;;;;;;11.22;71.29;96569.82;1716958;84;20215;-79
2021/05/15 03:09:49;;;;;;;;;;;;;;;11.19;70.71;96571.41;1716786;84;20168;-79
2021/05/15 03:12:15;;;;;;;;;;;;;;;11.21;71.93;96576.06;1716489;83;20175;-81
2021/05/15 03:14:42;;;;;;;;;;;;;;;11.25;71.86;96573.51;1716419;84;20162;-81
2021/05/15 03:17:09;;;;;;;;;;;;;;;11.29;71.96;96580.66;1716402;84;20164;-80
2021/05/15 03:19:35;;;;;;;;;;;;;;;11.32;71.27;96574.25;1716436;84;20528;-80
2021/05/15 03:22:02;;;;;;;;;;;;;;;11.30;71.91;96570.91;1716353;84;20500;-80
2021/05/15 03:24:28;;;;;;;;;;;;;;;11.39;72.30;96572.71;1716523;84;20492;-81
2021/05/15 03:26:54;;;;;;;;;;;;;;;11.45;71.69;96572.16;1716674;84;20505;-80
2021/05/15 03:29:21;;;;;;;;;;;;;;;11.47;71.26;96576.79;1716736;84;20466;-80
2021/05/15 03:31:47;;;;;;;;;;;;;;;11.43;70.79;96576.75;1716549;82;20276;-81
2021/05/15 03:34:13;;;;;;;;;;;;;;;11.45;71.23;96570.00;1734703;82;20226;-80
2021/05/15 03:36:39;;;;;;;;;;;;;;;11.45;70.74;96579.23;1746199;82;20130;-80
2021/05/15 03:39:06;;;;;;;;;;;;;;;11.45;70.91;96585.83;1737021;82;20523;-77
2021/05/15 03:41:32;;;;;;;;;;;;;;;11.46;70.39;96589.64;1732436;82;20231;-78
2021/05/15 03:43:59;;;;;;;;;;;;;;;11.43;70.07;96593.90;1716322;83;20224;-78
2021/05/15 03:46:25;;;;;;;;;;;;;;;11.42;70.94;96589.59;1716204;84;20211;-78
2021/05/15 03:48:51;;;;;;;;;;;;;;;11.45;70.09;96594.59;1716008;84;20582;-80
2021/05/15 03:51:17;;;;;;;;;;;;;;;11.44;70.62;96596.89;1715989;84;20504;-79
2021/05/15 03:53:44;;;;;;;;;;;;;;;11.48;71.08;96607.49;1716020;84;20153;-80
2021/05/15 03:56:10;;;;;;;;;;;;;;;11.53;71.31;96603.95;1683041;85;20171;-82
2021/05/15 03:58:36;;;;;;;;;;;;;;;11.60;71.13;96606.02;1701068;84;20186;-80
2021/05/15 04:01:03;;;;;;;;;;;;;;;11.64;70.65;96606.91;1671365;86;20156;-80
2021/05/15 04:03:29;;;;;;;;;;;;;;;11.67;69.88;96607.96;1693178;85;20494;-78
2021/05/15 04:05:55;;;;;;;;;;;;;;;11.69;69.92;96610.45;1693289;85;20174;-82
2021/05/15 04:08:23;;;;;;;;;;;;;;;11.74;69.68;96605.56;1692810;85;20170;-81
2021/05/15 04:10:49;;;;;;;;;;;;;;;11.77;69.27;96601.33;1692547;85;20503;-82
2021/05/15 04:15:55;;;;;;;;;;;;;;;11.85;69.96;96606.72;1707674;84;20470;-81
2021/05/15 04:18:15;;;;;;;;;;;;;;;11.92;69.77;96608.81;1705861;84;20169;-82
2021/05/15 04:20:42;;;;;;;;;;;;;;;11.96;69.37;96604.89;1647151;86;20473;-80
2021/05/15 04:23:09;;;;;;;;;;;;;;;12.03;69.88;96611.28;1707474;84;20510;-81
2021/05/15 04:25:38;;;;;;;;;;;;;;;12.10;69.60;96616.36;1707519;84;20165;-81
2021/05/15 04:28:05;;;;;;;;;;;;;;;12.17;69.56;96617.44;1704589;84;20489;-83
2021/05/15 04:30:38;;;;;;;;;;;;;;;12.22;69.57;96617.00;1704088;84;20202;-81
2021/05/15 04:33:02;;;;;;;;;;;;;;;12.27;68.79;96620.02;1703123;84;20182;-82
2021/05/15 04:35:32;;;;;;;;;;;;;;;12.30;69.21;96616.25;1704250;84;20185;-82
2021/05/15 04:37:56;;;;;;;;;;;;;;;12.38;69.08;96622.98;1703913;84;20181;-82
2021/05/15 04:40:23;;;;;;;;;;;;;;;12.46;68.97;96622.23;1704678;84;20220;-82
2021/05/15 04:42:49;;;;;;;;;;;;;;;12.50;68.71;96624.44;1706321;84;20193;-81
2021/05/15 04:45:15;;;;;;;;;;;;;;;12.56;68.60;96617.73;1706617;84;20162;-82
2021/05/15 04:47:42;;;;;;;;;;;;;;;12.65;68.65;96627.93;1707323;84;20455;-82
2021/05/15 04:50:10;;;;;;;;;;;;;;;12.75;68.38;96630.03;1707282;84;20537;-81
2021/05/15 04:52:37;;;;;;;;;;;;;;;12.85;68.32;96633.92;1707122;84;20173;-82
2021/05/15 04:55:05;;;;;;;;;;;;;;;12.94;68.03;96635.67;1707115;84;20146;-82
2021/05/15 04:57:31;;;;;;;;;;;;;;;13.05;68.00;96639.91;1707249;84;20181;-82
2021/05/15 04:59:57;;;;;;;;;;;;;;;13.17;67.88;96643.67;1707117;84;20177;-80
2021/05/15 05:02:23;;;;;;;;;;;;;;;13.30;67.61;96642.81;1703849;84;20198;-81
2021/05/15 05:04:51;;;;;;;;;;;;;;;13.42;67.38;96646.09;1706313;84;20189;-83
2021/05/15 05:07:17;;;;;;;;;;;;;;;13.56;66.90;96638.09;1705634;84;20172;-83
2021/05/15 05:09:44;;;;;;;;;;;;;;;13.71;65.72;96638.38;1705959;84;20161;-82
2021/05/15 05:12:10;;;;;;;;;;;;;;;13.82;65.78;96640.78;1704381;84;20621;-81
2021/05/15 05:14:38;;;;;;;;;;;;;;;14.04;65.05;96640.76;1704104;84;20173;-81
2021/05/15 05:17:05;;;;;;;;;;;;;;;14.29;65.34;96641.40;1703890;84;20533;-81
2021/05/15 05:19:32;;;;;;;;;;;;;;;14.79;64.83;96634.50;1703916;84;20514;-80
2021/05/15 05:22:02;;;;;;;;;;;;;;;15.42;63.48;96641.08;1704404;84;20181;-80
2021/05/15 05:24:27;;;;;;;;;;;;;;;16.05;62.10;96637.92;1703799;84;20267;-81
2021/05/15 05:26:54;;;;;;;;;;;;;;;16.73;60.34;96641.53;1703989;84;20280;-81
2021/05/15 05:29:21;;;;;;;;;;;;;;;17.44;59.94;96648.16;1703843;84;20229;-80
2021/05/15 05:31:48;;;;;;;;;;;;;;;17.92;55.93;96644.74;1704045;84;20189;-81
2021/05/15 05:34:14;;;;;;;;;;;;;;;18.20;54.81;96646.02;1705357;84;20190;-80
2021/05/15 05:36:40;;;;;;;;;;;;;;;18.28;53.66;96643.79;1707213;84;20149;-81
2021/05/15 05:39:11;;;;;;;;;;;;;;;18.40;57.96;96641.81;1707394;82;20160;-79
2021/05/15 05:41:38;;;;;;;;;;;;;;;18.38;53.18;96641.65;1725077;83;20162;-81
2021/05/15 05:44:05;;;;;;;;;;;;;;;18.35;58.66;96646.03;1707140;84;20154;-81
2021/05/15 05:46:32;;;;;;;;;;;;;;;18.02;55.65;96641.02;1704926;82;20154;-81
2021/05/15 05:49:00;;;;;;;;;;;;;;;17.80;56.44;96646.20;1702821;84;20506;-79
2021/05/15 05:51:27;;;;;;;;;;;;;;;17.52;53.46;96640.10;1704215;84;20186;-81
2021/05/15 05:53:53;;;;;;;;;;;;;;;17.03;56.17;96632.43;1702390;84;20149;-80
2021/05/15 05:56:19;;;;;;;;;;;;;;;16.78;56.38;96635.20;1682051;84;20589;-82
2021/05/15 05:58:46;;;;;;;;;;;;;;;16.71;56.49;96641.20;1679652;85;20168;-81
2021/05/15 06:01:14;;;;;;;;;;;;;;;17.25;57.70;96638.78;1700745;84;20150;-80
2021/05/15 06:03:41;;;;;;;;;;;;;;;17.69;56.50;96636.78;1704764;84;20162;-81
2021/05/15 06:06:08;;;;;;;;;;;;;;;18.22;52.87;96633.34;1701896;84;20162;-81
2021/05/15 06:08:34;;;;;;;;;;;;;;;18.88;52.37;96628.04;1688195;84;20192;-80
2021/05/15 06:11:00;;;;;;;;;;;;;;;19.31;47.58;96625.97;1667435;84;20151;-80
2021/05/15 06:13:27;;;;;;;;;;;;;;;19.83;55.04;96621.79;1649345;86;20181;-79
2021/05/15 06:15:53;;;;;;;;;;;;;;;20.20;46.50;96627.03;1670475;85;20212;-80
2021/05/15 06:18:19;;;;;;;;;;;;;;;20.28;50.67;96626.88;1698967;84;20162;-79
2021/05/15 06:20:46;;;;;;;;;;;;;;;20.06;47.64;96626.12;1699344;84;20210;-78
2021/05/15 06:23:13;;;;;;;;;;;;;;;19.91;47.10;96619.00;1676679;85;20219;-80
2021/05/15 06:25:40;;;;;;;;;;;;;;;20.58;49.14;96622.10;1664971;86;20191;-80
2021/05/15 06:28:09;;;;;;;;;;;;;;;21.18;49.07;96625.56;1705367;84;20236;-80
2021/05/15 06:30:35;;;;;;;;;;;;;;;20.79;44.73;96623.58;1706224;84;20161;-77
2021/05/15 06:33:01;;;;;;;;;;;;;;;20.28;45.97;96622.34;1706790;84;20216;-79
2021/05/15 06:35:28;;;;;;;;;;;;;;;19.78;47.30;96617.55;1711432;84;20163;-78
2021/05/15 06:37:54;;;;;;;;;;;;;;;19.50;48.56;96623.16;1694797;84;20160;-78
2021/05/15 06:40:20;;;;;;;;;;;;;;;19.75;47.86;96628.12;1676000;84;20137;-78
2021/05/15 06:42:46;;;;;;;;;;;;;;;19.24;47.51;96620.23;1676324;84;20620;-77
2021/05/15 06:45:13;;;;;;;;;;;;;;;18.94;48.96;96625.16;1678633;84;20211;-78
2021/05/15 06:47:39;;;;;;;;;;;;;;;19.39;49.44;96637.55;1691870;85;20191;-77
2021/05/15 06:50:08;;;;;;;;;;;;;;;20.01;48.33;96641.41;1691946;85;20175;-78
2021/05/15 06:52:35;;;;;;;;;;;;;;;20.31;49.16;96639.87;1695860;85;20154;-77
2021/05/15 06:55:02;;;;;;;;;;;;;;;20.60;48.18;96636.12;1696764;85;20554;-77
2021/05/15 06:57:28;;;;;;;;;;;;;;;20.55;47.73;96636.40;1693939;83;20288;-77
2021/05/15 06:59:54;;;;;;;;;;;;;;;20.04;47.64;96641.03;1693317;85;20171;-82
2021/05/15 07:02:21;;;;;;;;;;;;;;;19.60;49.10;96640.72;1676023;86;20227;-83
2021/05/15 07:04:47;;;;;;;;;;;;;;;19.78;48.81;96636.27;1696833;85;20185;-78
2021/05/15 07:07:13;;;;;;;;;;;;;;;19.86;49.07;96638.83;1695375;85;20154;-78
2021/05/15 07:09:39;;;;;;;;;;;;;;;20.19;48.19;96634.75;1697496;85;20182;-78
2021/05/15 07:12:06;;;;;;;;;;;;;;;20.22;47.47;96643.73;1697567;85;20155;-79
2021/05/15 07:14:32;;;;;;;;;;;;;;;19.94;48.13;96636.53;1697681;85;20187;-78
2021/05/15 07:16:58;;;;;;;;;;;;;;;19.73;48.75;96644.86;1697147;85;20154;-77
2021/05/15 07:19:24;;;;;;;;;;;;;;;19.93;49.16;96640.22;1697380;85;20151;-77
2021/05/15 07:21:50;;;;;;;;;;;;;;;20.16;48.04;96642.66;1697317;85;20174;-77
2021/05/15 07:24:16;;;;;;;;;;;;;;;20.10;46.67;96640.25;1698876;83;20158;-76
2021/05/15 07:26:42;;;;;;;;;;;;;;;20.24;47.84;96643.00;1697649;83;20154;-78
2021/05/15 07:29:09;;;;;;;;;;;;;;;20.51;46.53;96644.00;1701326;83;20153;-80
2021/05/15 07:31:36;;;;;;;;;;;;;;;20.78;46.19;96644.16;1675310;84;20160;-78
2021/05/15 07:34:02;;;;;;;;;;;;;;;21.03;45.71;96648.98;1674928;84;20246;-81
2021/05/15 07:36:28;;;;;;;;;;;;;;;20.83;44.64;96644.41;1695786;85;20150;-79
2021/05/15 07:38:54;;;;;;;;;;;;;;;20.80;45.72;96647.47;1696358;83;20549;-78
2021/05/15 07:41:22;;;;;;;;;;;;;;;20.83;45.09;96645.75;1722046;83;20251;-76
2021/05/15 07:43:48;;;;;;;;;;;;;;;20.76;43.58;96644.87;1724210;83;20227;-79
2021/05/15 07:46:15;;;;;;;;;;;;;;;20.94;44.86;96644.83;1723238;83;20187;-74
2021/05/15 07:48:43;;;;;;;;;;;;;;;20.77;44.76;96645.19;1721233;83;20159;-77
2021/05/15 07:51:12;;;;;;;;;;;;;;;20.71;45.24;96645.44;1721212;83;20234;-77
2021/05/15 07:53:38;;;;;;;;;;;;;;;20.33;44.78;96651.72;1720407;83;20237;-77
2021/05/15 07:56:05;;;;;;;;;;;;;;;20.76;45.52;96646.20;1703011;83;20169;-78
2021/05/15 07:58:32;;;;;;;;;;;;;;;21.12;42.83;96650.99;1713978;83;20186;-76
2021/05/15 08:00:59;;;;;;;;;;;;;;;21.16;43.45;96645.55;1699901;84;20170;-79
2021/05/15 08:03:25;;;;;;;;;;;;;;;20.65;44.39;96643.56;1715568;83;20816;-77
2021/05/15 08:05:51;;;;;;;;;;;;;;;20.78;44.01;96645.50;1699468;84;20558;-76
2021/05/15 08:08:18;;;;;;;;;;;;;;;20.74;42.96;96650.43;1699430;84;20174;-78
2021/05/15 08:10:44;;;;;;;;;;;;;;;20.54;41.54;96643.61;1670436;86;20161;-78
2021/05/15 08:13:10;;;;;;;;;;;;;;;20.78;43.31;96646.84;1699921;84;20172;-78
2021/05/15 08:15:36;;;;;;;;;;;;;;;21.05;40.07;96646.94;1670673;84;20176;-77
2021/05/15 08:18:02;;;;;;;;;;;;;;;21.12;41.03;96642.42;1713698;83;20154;-77
2021/05/15 08:20:28;;;;;;;;;;;;;;;21.37;41.51;96645.91;1699702;83;20175;-77
2021/05/15 08:22:55;;;;;;;;;;;;;;;21.42;42.08;96647.45;1691995;85;20242;-77
2021/05/15 08:25:22;;;;;;;;;;;;;;;21.35;42.45;96636.71;1692270;85;20459;-78
2021/05/15 08:27:59;;;;;;;;;;;;;;;21.57;42.18;96638.42;1692126;85;20518;-77
2021/05/15 08:30:28;;;;;;;;;;;;;;;21.66;42.57;96631.86;1694046;83;20171;-78
2021/05/15 08:32:54;;;;;;;;;;;;;;;21.43;40.08;96599.52;1694047;83;20181;-78
2021/05/15 08:35:21;;;;;;;;;;;;;;;21.72;41.27;96625.66;1709445;83;20174;-78
2021/05/15 08:37:47;;;;;;;;;;;;;;;21.52;38.47;96629.65;1721265;83;20173;-79
2021/05/15 08:40:14;;;;;;;;;;;;;;;21.37;37.48;96624.47;1721166;83;20203;-78
2021/05/15 08:42:42;;;;;;;;;;;;;;;21.28;37.77;96625.69;1711385;83;20216;-74
2021/05/15 08:45:11;;;;;;;;;;;;;;;21.26;37.67;96621.03;1702359;83;20159;-77
2021/05/15 08:47:38;;;;;;;;;;;;;;;21.35;39.82;96619.29;1691916;85;20280;-79
2021/05/15 08:50:09;;;;;;;;;;;;;;;21.32;37.83;96618.88;1691967;85;20150;-78
2021/05/15 08:52:40;;;;;;;;;;;;;;;21.36;37.95;96610.75;1693664;83;20722;-77
2021/05/15 08:55:08;;;;;;;;;;;;;;;21.24;38.11;96609.69;1707480;83;20214;-77
2021/05/15 08:57:35;;;;;;;;;;;;;;;20.93;38.23;96607.86;1696543;83;20182;-74
2021/05/15 09:00:10;;;;;;;;;;;;;;;20.79;40.31;96611.00;1713523;83;20194;-78
2021/05/15 09:02:37;;;;;;;;;;;;;;;20.82;40.02;96605.75;1718389;83;20170;-76
2021/05/15 09:05:07;;;;;;;;;;;;;;;20.79;40.57;96603.50;1720754;83;20174;-78
2021/05/15 09:07:33;;;;;;;;;;;;;;;20.95;39.88;96610.33;1692670;83;20186;-77
2021/05/15 09:09:59;;;;;;;;;;;;;;;21.03;40.21;96602.11;1686247;85;20248;-77
2021/05/15 09:12:25;;;;;;;;;;;;;;;21.20;40.54;96613.29;1686083;85;20218;-75
2021/05/15 09:15:03;;;;;;;;;;;;;;;21.25;39.29;96614.02;1695142;83;20158;-78
2021/05/15 09:17:29;;;;;;;;;;;;;;;21.19;39.02;96621.86;1690909;83;20174;-78
2021/05/15 09:19:55;;;;;;;;;;;;;;;20.77;40.02;96612.23;1692141;85;20178;-78
2021/05/15 09:22:26;;;;;;;;;;;;;;;20.60;41.02;96609.34;1689642;85;20158;-76
2021/05/15 09:24:53;;;;;;;;;;;;;;;20.59;39.82;96611.70;1699546;84;20511;-78
2021/05/15 09:27:19;;;;;;;;;;;;;;;20.28;41.08;96602.27;1699566;84;20455;-77
2021/05/15 09:29:48;;;;;;;;;;;;;;;20.34;39.82;96606.54;1711113;83;20504;-78
2021/05/15 09:32:17;;;;;;;;;;;;;;;20.04;40.71;96611.61;1734500;83;20151;-78
2021/05/15 09:34:49;;;;;;;;;;;;;;;19.79;41.12;96607.98;1718293;83;20154;-79
2021/05/15 09:37:35;;;;;;;;;;;;;;;19.81;41.36;96610.48;1700139;83;20157;-76
2021/05/15 09:40:14;;;;;;;;;;;;;;;19.58;41.83;96604.02;1683880;85;20187;-78
2021/05/15 09:42:49;;;;;;;;;;;;;;;19.70;42.61;96607.00;1683274;85;20195;-76
2021/05/15 09:45:21;;;;;;;;;;;;;;;19.69;42.04;96613.36;1682879;85;20511;-76
2021/05/15 09:47:55;;;;;;;;;;;;;;;19.55;42.58;96619.91;1688644;85;20191;-79
2021/05/15 09:50:24;;;;;;;;;;;;;;;19.57;43.73;96617.87;1689001;85;20222;-78
2021/05/15 09:52:51;;;;;;;;;;;;;;;19.70;43.50;96613.68;1689043;85;20180;-79
2021/05/15 09:55:17;;;;;;;;;;;;;;;19.88;42.39;96611.39;1662529;85;20179;-78
2021/05/15 09:57:47;;;;;;;;;;;;;;;20.19;43.11;96611.48;1688814;84;20134;-76
2021/05/15 10:00:14;;;;;;;;;;;;;;;20.33;42.08;96610.23;1689756;83;20170;-79
2021/05/15 10:02:40;;;;;;;;;;;;;;;20.31;41.44;96605.58;1688931;84;20162;-79
2021/05/15 10:05:11;;;;;;;;;;;;;;;20.10;42.07;96612.66;1663717;85;20210;-78
2021/05/15 10:07:38;;;;;;;;;;;;;;;20.23;41.81;96612.75;1688961;84;20538;-79
2021/05/15 10:10:08;;;;;;;;;;;;;;;20.30;42.28;96602.09;1688885;84;20489;-82
2021/05/15 10:12:36;;;;;;;;;;;;;;;20.23;41.80;96604.73;1688925;84;20155;-77
2021/05/15 10:15:07;;;;;;;;;;;;;;;20.16;41.82;96603.02;1689162;84;20174;-80
2021/05/15 10:17:34;;;;;;;;;;;;;;;20.11;42.53;96606.28;1688842;85;20212;-78
2021/05/15 10:20:06;;;;;;;;;;;;;;;20.08;42.59;96602.68;1688993;84;20171;-79
2021/05/15 10:22:35;;;;;;;;;;;;;;;20.23;43.18;96605.25;1689123;85;20222;-79
2021/05/15 10:25:02;;;;;;;;;;;;;;;20.38;42.36;96595.73;1688685;85;20246;-79
2021/05/15 10:27:31;;;;;;;;;;;;;;;20.44;43.58;96592.28;1688882;84;20165;-78
2021/05/15 10:29:57;;;;;;;;;;;;;;;20.49;41.53;96601.87;1688891;83;20147;-77
2021/05/15 10:32:33;;;;;;;;;;;;;;;20.47;42.13;96591.88;1689040;85;20155;-79
2021/05/15 10:35:05;;;;;;;;;;;;;;;20.78;41.30;96594.62;1688914;84;20479;-78
2021/05/15 10:37:39;;;;;;;;;;;;;;;20.29;42.23;96596.42;1688657;85;20246;-76
2021/05/15 10:40:14;;;;;;;;;;;;;;;20.20;42.00;96590.39;1688820;85;20151;-77
2021/05/15 10:42:40;;;;;;;;;;;;;;;20.09;42.30;96585.61;1688943;83;20499;-77
2021/05/15 10:45:07;;;;;;;;;;;;;;;20.14;43.27;96583.16;1689088;84;20394;-78
2021/05/15 10:47:40;;;;;;;;;;;;;;;20.41;42.79;96594.02;1684921;84;20222;-77
2021/05/15 10:50:18;;;;;;;;;;;;;;;20.50;42.11;96601.37;1683716;85;20167;-78
2021/05/15 10:52:46;;;;;;;;;;;;;;;20.56;41.99;96601.39;1683880;83;20158;-78
2021/05/15 10:55:12;;;;;;;;;;;;;;;20.54;42.20;96587.89;1683696;85;20158;-77
2021/05/15 10:57:38;;;;;;;;;;;;;;;20.67;42.41;96592.48;1683752;85;20163;-78
2021/05/15 11:00:07;;;;;;;;;;;;;;;20.71;39.88;96594.55;1683838;85;20155;-78
2021/05/15 11:02:37;;;;;;;;;;;;;;;20.87;40.02;96585.38;1683659;85;20151;-77
2021/05/15 11:05:17;;;;;;;;;;;;;;;20.84;40.24;96587.11;1683663;85;20175;-77
2021/05/15 11:07:43;;;;;;;;;;;;;;;20.90;40.59;96584.14;1683907;85;20143;-78
2021/05/15 11:10:16;;;;;;;;;;;;;;;20.97;40.10;96581.00;1683874;85;20151;-77
2021/05/15 11:12:49;;;;;;;;;;;;;;;21.06;40.57;96581.63;1683601;85;20258;-76
2021/05/15 11:15:18;;;;;;;;;;;;;;;21.14;41.55;96591.34;1683670;85;20166;-78
2021/05/15 11:17:46;;;;;;;;;;;;;;;21.25;41.13;96584.55;1683734;85;20187;-78
2021/05/15 11:20:15;;;;;;;;;;;;;;;21.14;40.50;96582.77;1666425;85;20175;-78
2021/05/15 11:22:49;;;;;;;;;;;;;;;21.06;40.92;96574.92;1683577;85;20551;-76
2021/05/15 11:25:19;;;;;;;;;;;;;;;21.28;40.96;96576.92;1683527;85;20877;-77
2021/05/15 11:27:56;;;;;;;;;;;;;;;21.49;40.69;96571.06;1683563;85;20205;-78
2021/05/15 11:30:28;;;;;;;;;;;;;;;21.42;39.68;96575.08;1683479;85;20586;-78
2021/05/15 11:33:04;;;;;;;;;;;;;;;21.43;40.36;96567.34;1683894;83;20570;-79
2021/05/15 11:35:41;;;;;;;;;;;;;;;21.50;40.47;96560.66;1683558;85;20575;-78
2021/05/15 11:38:13;;;;;;;;;;;;;;;21.66;39.77;96565.63;1683635;85;20242;-76
2021/05/15 11:40:49;;;;;;;;;;;;;;;21.76;40.17;96567.08;1683783;85;20502;-78
2021/05/15 11:43:28;;;;;;;;;;;;;;;21.74;40.19;96562.42;1683636;85;20502;-78
2021/05/15 11:45:54;;;;;;;;;;;;;;;21.74;39.20;96569.97;1684780;85;20202;-77
2021/05/15 11:48:25;;;;;;;;;;;;;;;21.61;39.44;96561.92;1710305;83;20138;-78
2021/05/15 11:51:09;;;;;;;;;;;;;;;21.55;39.65;96560.85;1688756;84;20155;-78
2021/05/15 11:53:40;;;;;;;;;;;;;;;21.41;38.06;96559.21;1688779;84;20238;-76
2021/05/15 11:56:11;;;;;;;;;;;;;;;21.27;38.78;96559.19;1688728;84;20151;-78
2021/05/15 11:58:47;;;;;;;;;;;;;;;21.30;39.15;96565.98;1688796;84;20539;-78
2021/05/15 12:01:31;;;;;;;;;;;;;;;21.03;38.76;96560.09;1688227;85;20155;-78
2021/05/15 12:04:17;;;;;;;;;;;;;;;20.82;39.82;96555.71;1688713;84;20514;-78
2021/05/15 12:06:44;;;;;;;;;;;;;;;20.88;40.27;96550.06;1688684;85;20142;-78
2021/05/15 12:09:12;;;;;;;;;;;;;;;20.88;40.50;96550.88;1688838;84;20175;-79
2021/05/15 12:11:38;;;;;;;;;;;;;;;20.81;40.68;96553.22;1688966;84;20250;-79
2021/05/15 12:14:04;;;;;;;;;;;;;;;20.88;40.63;96548.73;1686152;85;20281;-84
2021/05/15 12:16:36;;;;;;;;;;;;;;;20.78;40.33;96552.30;1671508;86;20249;-78
2021/05/15 12:19:03;;;;;;;;;;;;;;;20.57;41.14;96550.03;1671723;85;20143;-78
2021/05/15 12:21:30;;;;;;;;;;;;;;;20.47;41.12;96548.23;1671610;85;20187;-78
2021/05/15 12:24:06;;;;;;;;;;;;;;;20.49;41.53;96545.66;1671640;85;20179;-79
2021/05/15 12:26:32;;;;;;;;;;;;;;;20.56;40.88;96546.51;1671534;85;20187;-78
2021/05/15 12:29:03;;;;;;;;;;;;;;;20.76;40.79;96541.77;1671739;85;20459;-78
2021/05/15 12:31:32;;;;;;;;;;;;;;;20.98;41.38;96542.97;1671583;85;20476;-79
2021/05/15 12:33:59;;;;;;;;;;;;;;;21.08;40.25;96535.86;1671439;86;20532;-79
2021/05/15 12:36:34;;;;;;;;;;;;;;;21.19;40.54;96536.61;1671551;85;20497;-78
2021/05/15 12:39:00;;;;;;;;;;;;;;;21.29;40.30;96530.33;1671444;86;20163;-78
2021/05/15 12:41:33;;;;;;;;;;;;;;;21.29;39.80;96533.01;1671556;85;20491;-76
2021/05/15 12:44:11;;;;;;;;;;;;;;;21.34;39.83;96528.38;1671576;85;20284;-77
2021/05/15 12:46:39;;;;;;;;;;;;;;;21.32;39.95;96529.93;1674222;84;20277;-79
2021/05/15 12:49:10;;;;;;;;;;;;;;;21.33;39.89;96522.70;1690794;85;20178;-77
2021/05/15 12:51:45;;;;;;;;;;;;;;;21.35;39.71;96516.09;1690524;85;20558;-78
2021/05/15 12:54:16;;;;;;;;;;;;;;;21.46;40.06;96517.36;1690544;85;20190;-77
2021/05/15 12:56:52;;;;;;;;;;;;;;;21.41;39.42;96514.98;1690451;85;20178;-78